createdAt,value
2024-01-04T00:00:09.143Z,87.67
2024-01-04T00:01:10.400Z,88.29
2024-01-04T00:02:07.020Z,89.38
2024-01-04T00:03:03.888Z,89.03
2024-01-04T00:04:00.583Z,88.75
2024-01-04T00:05:00.264Z,87.99
2024-01-04T00:05:57.039Z,87.59
2024-01-04T00:06:53.683Z,87.42
2024-01-04T00:07:50.280Z,86.92
2024-01-04T00:08:47.779Z,86.44
2024-01-04T00:09:44.512Z,86.95
2024-01-04T00:10:41.103Z,87.16
2024-01-04T00:11:37.812Z,87.19
2024-01-04T00:12:34.686Z,86.14
2024-01-04T00:13:31.392Z,86.20
2024-01-04T00:14:28.001Z,86.09
2024-01-04T00:15:24.664Z,86.42
2024-01-04T00:16:21.233Z,87.74
2024-01-04T00:17:17.800Z,88.36
2024-01-04T00:18:14.644Z,89.02
2024-01-04T00:19:11.511Z,88.37
2024-01-04T00:20:10.906Z,87.64
2024-01-04T00:21:07.731Z,87.95
2024-01-04T00:22:04.601Z,87.55
2024-01-04T00:23:01.286Z,87.04
2024-01-04T00:23:59.116Z,87.90
2024-01-04T00:24:55.941Z,87.86
2024-01-04T00:25:52.636Z,88.09
2024-01-04T00:26:49.316Z,87.95
2024-01-04T00:27:45.932Z,87.48
2024-01-04T00:28:42.620Z,87.41
2024-01-04T00:29:39.278Z,87.36
2024-01-04T00:30:36.535Z,87.19
2024-01-04T00:31:33.275Z,87.02
2024-01-04T00:32:30.617Z,86.91
2024-01-04T00:33:27.686Z,87.05
2024-01-04T00:34:24.555Z,87.77
2024-01-04T00:35:21.857Z,87.79
2024-01-04T00:36:18.972Z,87.67
2024-01-04T00:37:15.726Z,88.79
2024-01-04T00:38:12.278Z,88.22
2024-01-04T00:39:09.559Z,88.61
2024-01-04T00:40:07.145Z,87.70
2024-01-04T00:41:04.069Z,88.03
2024-01-04T00:42:00.742Z,87.39
2024-01-04T00:42:58.492Z,87.30
2024-01-04T00:43:55.133Z,87.04
2024-01-04T00:44:51.885Z,86.91
2024-01-04T00:45:48.510Z,87.72
2024-01-04T00:46:45.157Z,87.39
2024-01-04T00:47:41.996Z,86.88
2024-01-04T00:48:38.825Z,86.67
2024-01-04T00:49:35.738Z,86.27
2024-01-04T00:50:32.734Z,86.27
2024-01-04T00:51:29.355Z,86.63
2024-01-04T00:52:26.013Z,86.60
2024-01-04T00:53:22.703Z,86.16
2024-01-04T00:54:19.319Z,86.52
2024-01-04T00:55:15.937Z,86.07
2024-01-04T00:56:12.677Z,86.28
2024-01-04T00:57:09.936Z,86.26
2024-01-04T00:58:07.002Z,85.88
2024-01-04T00:59:04.619Z,86.72
2024-01-04T01:00:01.248Z,85.93
2024-01-04T01:00:59.092Z,86.19
2024-01-04T01:01:55.815Z,86.42
2024-01-04T01:02:52.452Z,85.88
2024-01-04T01:03:49.134Z,85.96
2024-01-04T01:04:45.790Z,86.54
2024-01-04T01:05:42.473Z,86.09
2024-01-04T01:06:39.678Z,85.38
2024-01-04T01:07:36.433Z,85.23
2024-01-04T01:08:33.101Z,85.60
2024-01-04T01:09:29.800Z,85.72
2024-01-04T01:10:27.683Z,86.06
2024-01-04T01:11:24.263Z,86.00
2024-01-04T01:12:21.295Z,86.76
2024-01-04T01:13:21.839Z,86.24
2024-01-04T01:14:18.599Z,86.04
2024-01-04T01:15:15.432Z,85.74
2024-01-04T01:16:12.231Z,85.96
2024-01-04T01:17:08.808Z,85.57
2024-01-04T01:18:05.870Z,86.29
2024-01-04T01:19:04.141Z,85.60
2024-01-04T01:20:01.086Z,85.47
2024-01-04T01:20:58.774Z,86.29
2024-01-04T01:21:55.409Z,85.68
2024-01-04T01:22:52.012Z,86.19
2024-01-04T01:23:48.775Z,85.90
2024-01-04T01:24:45.442Z,85.84
2024-01-04T01:25:42.115Z,86.08
2024-01-04T01:26:38.880Z,85.93
2024-01-04T01:27:35.572Z,86.75
2024-01-04T01:28:32.277Z,86.61
2024-01-04T01:29:28.879Z,86.95
2024-01-04T01:30:28.167Z,88.34
2024-01-04T01:31:24.865Z,87.32
2024-01-04T01:32:21.517Z,86.54
2024-01-04T01:33:18.416Z,85.89
2024-01-04T01:34:15.285Z,86.46
2024-01-04T01:35:12.041Z,85.90
2024-01-04T01:36:09.604Z,84.97
2024-01-04T01:37:06.417Z,85.58
2024-01-04T01:38:03.114Z,85.38
2024-01-04T01:38:59.867Z,85.05
2024-01-04T01:39:56.455Z,85.28
2024-01-04T01:40:53.086Z,85.28
2024-01-04T01:41:49.918Z,85.27
2024-01-04T01:42:48.624Z,84.99
2024-01-04T01:43:45.339Z,84.83
2024-01-04T01:44:42.334Z,85.42
2024-01-04T01:45:38.952Z,86.18
2024-01-04T01:46:35.849Z,86.33
2024-01-04T01:47:33.195Z,85.62
2024-01-04T01:48:30.126Z,85.19
2024-01-04T01:49:27.621Z,85.39
2024-01-04T01:50:25.256Z,85.55
2024-01-04T01:51:21.934Z,84.43
2024-01-04T01:52:18.721Z,84.06
2024-01-04T01:53:16.028Z,84.47
2024-01-04T01:54:13.807Z,85.03
2024-01-04T01:55:11.183Z,84.44
2024-01-04T01:56:07.784Z,84.10
2024-01-04T01:57:04.772Z,83.24
2024-01-04T01:58:01.677Z,83.72
2024-01-04T01:58:59.035Z,84.04
2024-01-04T01:59:55.731Z,84.30
2024-01-04T02:00:53.135Z,85.02
2024-01-04T02:01:49.905Z,84.67
2024-01-04T02:02:49.600Z,84.76
2024-01-04T02:03:47.597Z,85.29
2024-01-04T02:04:44.312Z,84.82
2024-01-04T02:05:41.204Z,84.14
2024-01-04T02:06:38.138Z,84.86
2024-01-04T02:07:34.850Z,84.13
2024-01-04T02:08:31.877Z,84.15
2024-01-04T02:09:29.324Z,83.46
2024-01-04T02:10:25.929Z,83.34
2024-01-04T02:11:24.106Z,82.81
2024-01-04T02:12:20.795Z,83.11
2024-01-04T02:13:17.465Z,82.78
2024-01-04T02:14:14.135Z,83.01
2024-01-04T02:15:10.893Z,83.79
2024-01-04T02:16:07.570Z,83.42
2024-01-04T02:17:04.412Z,83.14
2024-01-04T02:18:01.434Z,83.69
2024-01-04T02:18:58.947Z,83.83
2024-01-04T02:19:57.979Z,83.28
2024-01-04T02:20:54.670Z,82.78
2024-01-04T02:21:51.281Z,82.83
2024-01-04T02:22:49.452Z,82.93
2024-01-04T02:23:46.205Z,82.71
2024-01-04T02:24:42.831Z,83.23
2024-01-04T02:25:39.487Z,83.00
2024-01-04T02:26:36.249Z,82.55
2024-01-04T02:27:32.929Z,82.54
2024-01-04T02:28:29.656Z,83.19
2024-01-04T02:29:26.431Z,83.14
2024-01-04T02:30:23.183Z,82.11
2024-01-04T02:31:19.923Z,83.71
2024-01-04T02:32:16.569Z,82.92
2024-01-04T02:33:13.713Z,83.67
2024-01-04T02:34:10.506Z,82.81
2024-01-04T02:35:07.514Z,82.98
2024-01-04T02:36:04.327Z,82.78
2024-01-04T02:37:01.079Z,81.96
2024-01-04T02:37:57.724Z,82.13
2024-01-04T02:38:54.397Z,81.94
2024-01-04T02:39:51.048Z,82.87
2024-01-04T02:40:48.036Z,82.07
2024-01-04T02:41:44.712Z,82.50
2024-01-04T02:42:41.341Z,82.55
2024-01-04T02:43:37.972Z,82.59
2024-01-04T02:44:34.728Z,82.59
2024-01-04T02:45:31.311Z,83.17
2024-01-04T02:46:28.018Z,84.17
2024-01-04T02:47:24.725Z,82.41
2024-01-04T02:48:21.692Z,82.79
2024-01-04T02:49:18.523Z,81.48
2024-01-04T02:50:15.696Z,83.24
2024-01-04T02:51:12.475Z,82.36
2024-01-04T02:52:09.243Z,82.11
2024-01-04T02:53:05.893Z,82.25
2024-01-04T02:54:02.684Z,81.64
2024-01-04T02:54:59.343Z,81.57
2024-01-04T02:55:56.699Z,82.15
2024-01-04T02:56:53.584Z,82.68
2024-01-04T02:57:50.268Z,81.47
2024-01-04T02:58:46.858Z,81.33
2024-01-04T02:59:43.500Z,81.39
2024-01-04T03:00:40.180Z,81.61
2024-01-04T03:01:37.424Z,80.95
2024-01-04T03:02:34.054Z,81.24
2024-01-04T03:03:30.686Z,81.75
2024-01-04T03:04:27.397Z,83.00
2024-01-04T03:05:24.025Z,82.72
2024-01-04T03:06:25.216Z,81.93
2024-01-04T03:07:22.205Z,82.39
2024-01-04T03:08:18.956Z,82.27
2024-01-04T03:09:15.644Z,82.92
2024-01-04T03:10:12.438Z,82.48
2024-01-04T03:11:09.090Z,82.01
2024-01-04T03:12:06.262Z,84.16
2024-01-04T03:13:04.607Z,82.96
2024-01-04T03:14:01.283Z,81.97
2024-01-04T03:15:00.218Z,82.95
2024-01-04T03:15:57.026Z,83.34
2024-01-04T03:16:53.625Z,83.10
2024-01-04T03:17:50.881Z,83.10
2024-01-04T03:18:48.068Z,82.63
2024-01-04T03:19:44.944Z,83.87
2024-01-04T03:20:41.697Z,84.18
2024-01-04T03:21:38.412Z,83.38
2024-01-04T03:22:35.060Z,83.09
2024-01-04T03:23:31.721Z,83.66
2024-01-04T03:24:28.346Z,84.66
2024-01-04T03:25:24.937Z,84.00
2024-01-04T03:26:21.616Z,85.61
2024-01-04T03:27:18.222Z,85.22
2024-01-04T03:28:14.869Z,83.89
2024-01-04T03:29:11.516Z,83.61
2024-01-04T03:30:09.357Z,83.47
2024-01-04T03:31:06.228Z,83.64
2024-01-04T03:32:04.206Z,83.70
2024-01-04T03:33:00.904Z,83.97
2024-01-04T03:33:57.764Z,83.55
2024-01-04T03:34:54.510Z,84.32
2024-01-04T03:35:51.153Z,84.01
2024-01-04T03:36:47.792Z,82.34
2024-01-04T03:37:44.393Z,82.95
2024-01-04T03:38:41.425Z,82.84
2024-01-04T03:39:38.074Z,82.93
2024-01-04T03:40:34.689Z,83.50
2024-01-04T03:41:31.280Z,84.89
2024-01-04T03:42:27.979Z,84.44
2024-01-04T03:43:24.563Z,84.84
2024-01-04T03:44:21.148Z,84.34
2024-01-04T03:45:17.801Z,84.47
2024-01-04T03:46:17.221Z,83.60
2024-01-04T03:47:14.526Z,83.89
2024-01-04T03:48:11.253Z,83.40
2024-01-04T03:49:08.110Z,83.17
2024-01-04T03:50:06.679Z,82.65
2024-01-04T03:51:03.771Z,83.61
2024-01-04T03:52:00.985Z,83.47
2024-01-04T03:52:57.589Z,83.06
2024-01-04T03:53:54.483Z,82.76
2024-01-04T03:54:51.090Z,82.47
2024-01-04T03:55:47.892Z,82.61
2024-01-04T03:56:44.515Z,83.39
2024-01-04T03:57:41.314Z,83.59
2024-01-04T03:58:39.405Z,83.24
2024-01-04T03:59:38.855Z,83.06
2024-01-04T04:00:35.485Z,82.72
2024-01-04T04:01:32.107Z,82.11
2024-01-04T04:02:28.702Z,82.21
2024-01-04T04:03:25.411Z,82.66
2024-01-04T04:04:22.149Z,82.45
2024-01-04T04:05:18.863Z,82.28
2024-01-04T04:06:20.394Z,82.19
2024-01-04T04:07:17.127Z,82.04
2024-01-04T04:08:13.790Z,82.23
2024-01-04T04:09:10.541Z,82.60
2024-01-04T04:10:08.202Z,83.35
2024-01-04T04:11:05.285Z,84.57
2024-01-04T04:12:01.929Z,84.02
2024-01-04T04:12:58.573Z,82.85
2024-01-04T04:13:55.359Z,82.68
2024-01-04T04:14:52.571Z,82.76
2024-01-04T04:15:49.277Z,83.22
2024-01-04T04:16:45.946Z,83.70
2024-01-04T04:17:42.816Z,84.24
2024-01-04T04:18:39.571Z,83.76
2024-01-04T04:19:36.390Z,83.39
2024-01-04T04:20:33.178Z,83.97
2024-01-04T04:21:29.841Z,83.53
2024-01-04T04:22:26.486Z,82.46
2024-01-04T04:23:23.126Z,83.83
2024-01-04T04:24:19.879Z,83.36
2024-01-04T04:25:16.840Z,83.74
2024-01-04T04:26:13.420Z,83.53
2024-01-04T04:27:10.163Z,83.89
2024-01-04T04:28:07.948Z,83.15
2024-01-04T04:29:04.599Z,83.55
2024-01-04T04:30:01.452Z,83.59
2024-01-04T04:30:58.137Z,84.27
2024-01-04T04:31:56.440Z,84.62
2024-01-04T04:32:53.160Z,83.83
2024-01-04T04:33:50.336Z,83.57
2024-01-04T04:34:47.273Z,83.23
2024-01-04T04:35:51.522Z,82.97
2024-01-04T04:36:52.851Z,83.31
2024-01-04T04:37:49.504Z,84.20
2024-01-04T04:38:46.266Z,84.37
2024-01-04T04:39:42.962Z,83.80
2024-01-04T04:40:39.569Z,83.85
2024-01-04T04:41:36.362Z,84.51
2024-01-04T04:42:33.042Z,84.38
2024-01-04T04:43:29.643Z,84.34
2024-01-04T04:44:26.322Z,83.82
2024-01-04T04:45:23.419Z,84.08
2024-01-04T04:46:20.150Z,84.93
2024-01-04T04:47:16.741Z,84.74
2024-01-04T04:48:13.596Z,84.62
2024-01-04T04:49:10.442Z,86.04
2024-01-04T04:50:07.727Z,85.19
2024-01-04T04:51:04.694Z,85.81
2024-01-04T04:52:01.425Z,84.99
2024-01-04T04:52:58.405Z,86.17
2024-01-04T04:53:55.197Z,85.50
2024-01-04T04:54:51.953Z,84.57
2024-01-04T04:55:48.605Z,84.59
2024-01-04T04:56:45.316Z,84.64
2024-01-04T04:57:42.403Z,85.18
2024-01-04T04:58:39.095Z,84.99
2024-01-04T04:59:35.737Z,84.82
2024-01-04T05:00:32.446Z,86.44
2024-01-04T05:01:29.091Z,86.94
2024-01-04T05:02:25.693Z,86.18
2024-01-04T05:03:22.511Z,86.87
2024-01-04T05:04:19.502Z,86.36
2024-01-04T05:05:16.158Z,85.71
2024-01-04T05:06:13.339Z,84.41
2024-01-04T05:07:10.453Z,85.17
2024-01-04T05:08:07.221Z,83.27
2024-01-04T05:09:04.004Z,83.45
2024-01-04T05:10:00.627Z,86.28
2024-01-04T05:10:57.420Z,88.28
2024-01-04T05:11:54.080Z,89.76
2024-01-04T05:12:50.766Z,90.54
2024-01-04T05:13:47.400Z,90.46
2024-01-04T05:14:44.075Z,90.37
2024-01-04T05:15:40.762Z,90.93
2024-01-04T05:16:37.347Z,92.11
2024-01-04T05:17:34.092Z,93.14
2024-01-04T05:18:32.036Z,92.71
2024-01-04T05:19:28.810Z,90.60
2024-01-04T05:20:25.425Z,90.11
2024-01-04T05:21:22.085Z,88.12
2024-01-04T05:22:19.355Z,89.70
2024-01-04T05:23:16.077Z,88.54
2024-01-04T05:24:12.748Z,88.52
2024-01-04T05:25:12.610Z,87.60
2024-01-04T05:26:09.299Z,89.06
2024-01-04T05:27:05.943Z,89.09
2024-01-04T05:28:02.686Z,88.97
2024-01-04T05:28:59.292Z,87.69
2024-01-04T05:29:56.012Z,87.54
2024-01-04T05:30:52.688Z,86.76
2024-01-04T05:31:49.353Z,86.98
2024-01-04T05:32:46.077Z,88.38
2024-01-04T05:33:43.054Z,88.98
2024-01-04T05:34:39.913Z,90.64
2024-01-04T05:35:36.721Z,90.82
2024-01-04T05:36:33.424Z,91.59
2024-01-04T05:37:30.316Z,91.53
2024-01-04T05:38:26.977Z,91.12
2024-01-04T05:39:24.213Z,89.96
2024-01-04T05:40:20.958Z,90.12
2024-01-04T05:41:17.855Z,89.08
2024-01-04T05:42:14.610Z,89.63
2024-01-04T05:43:11.254Z,87.50
2024-01-04T05:44:07.942Z,85.61
2024-01-04T05:45:06.270Z,85.06
2024-01-04T05:46:06.265Z,85.20
2024-01-04T05:47:02.997Z,85.53
2024-01-04T05:47:59.723Z,85.22
2024-01-04T05:48:56.562Z,84.91
2024-01-04T05:49:53.268Z,85.23
2024-01-04T05:50:50.724Z,85.97
2024-01-04T05:51:47.523Z,85.29
2024-01-04T05:52:44.169Z,85.11
2024-01-04T05:53:40.787Z,84.44
2024-01-04T05:54:37.410Z,83.97
2024-01-04T05:55:34.009Z,84.25
2024-01-04T05:56:30.757Z,84.47
2024-01-04T05:57:28.915Z,84.17
2024-01-04T05:58:25.534Z,83.80
2024-01-04T05:59:25.943Z,83.15
2024-01-04T06:00:22.680Z,83.47
2024-01-04T06:01:19.366Z,84.38
2024-01-04T06:02:16.038Z,84.44
2024-01-04T06:03:12.917Z,85.06
2024-01-04T06:04:09.661Z,85.08
2024-01-04T06:05:07.034Z,85.18
2024-01-04T06:06:04.294Z,84.84
2024-01-04T06:07:01.808Z,84.39
2024-01-04T06:07:58.510Z,84.27
2024-01-04T06:08:55.169Z,84.05
2024-01-04T06:09:52.004Z,83.97
2024-01-04T06:10:48.648Z,84.26
2024-01-04T06:11:45.250Z,83.92
2024-01-04T06:12:43.392Z,83.73
2024-01-04T06:13:40.243Z,83.99
2024-01-04T06:14:36.889Z,83.95
2024-01-04T06:15:33.558Z,83.66
2024-01-04T06:16:30.254Z,83.90
2024-01-04T06:17:26.897Z,84.20
2024-01-04T06:18:23.666Z,82.83
2024-01-04T06:19:20.651Z,82.81
2024-01-04T06:20:17.357Z,82.94
2024-01-04T06:21:14.041Z,83.85
2024-01-04T06:22:10.779Z,83.69
2024-01-04T06:23:07.522Z,82.75
2024-01-04T06:24:04.342Z,83.62
2024-01-04T06:25:01.172Z,83.29
2024-01-04T06:25:58.319Z,81.65
2024-01-04T06:26:55.067Z,82.27
2024-01-04T06:27:52.023Z,82.95
2024-01-04T06:28:48.771Z,85.17
2024-01-04T06:29:48.261Z,87.07
2024-01-04T06:30:45.181Z,85.44
2024-01-04T06:31:41.872Z,83.46
2024-01-04T06:32:38.723Z,86.33
2024-01-04T06:33:35.569Z,85.06
2024-01-04T06:34:33.223Z,85.09
2024-01-04T06:35:29.984Z,82.85
2024-01-04T06:36:26.658Z,83.18
2024-01-04T06:37:23.304Z,82.97
2024-01-04T06:38:19.997Z,83.37
2024-01-04T06:39:17.193Z,84.37
2024-01-04T06:40:14.712Z,84.45
2024-01-04T06:41:12.095Z,84.30
2024-01-04T06:42:08.812Z,85.37
2024-01-04T06:43:09.545Z,86.62
2024-01-04T06:44:06.374Z,88.30
2024-01-04T06:45:03.899Z,88.46
2024-01-04T06:46:00.909Z,87.45
2024-01-04T06:46:57.456Z,87.51
2024-01-04T06:47:54.196Z,87.88
2024-01-04T06:48:51.000Z,88.83
2024-01-04T06:49:47.866Z,89.68
2024-01-04T06:50:44.963Z,90.11
2024-01-04T06:51:41.588Z,90.07
2024-01-04T06:52:38.222Z,91.56
2024-01-04T06:53:34.886Z,92.57
2024-01-04T06:54:31.527Z,92.32
2024-01-04T06:55:28.207Z,90.71
2024-01-04T06:56:24.841Z,90.32
2024-01-04T06:57:21.536Z,89.02
2024-01-04T06:58:18.173Z,89.90
2024-01-04T06:59:14.803Z,89.63
2024-01-04T07:00:12.150Z,89.12
2024-01-04T07:01:09.010Z,88.07
2024-01-04T07:02:08.324Z,87.68
2024-01-04T07:03:05.690Z,87.49
2024-01-04T07:04:02.526Z,88.79
2024-01-04T07:04:59.170Z,87.72
2024-01-04T07:05:55.826Z,87.95
2024-01-04T07:06:52.620Z,87.09
2024-01-04T07:07:49.282Z,86.57
2024-01-04T07:08:45.978Z,86.92
2024-01-04T07:09:42.615Z,85.46
2024-01-04T07:10:41.739Z,85.25
2024-01-04T07:11:38.391Z,85.18
2024-01-04T07:12:35.117Z,84.98
2024-01-04T07:13:31.935Z,85.15
2024-01-04T07:14:28.597Z,84.05
2024-01-04T07:15:25.360Z,83.91
2024-01-04T07:16:22.126Z,84.27
2024-01-04T07:17:18.847Z,84.21
2024-01-04T07:18:15.602Z,84.81
2024-01-04T07:19:12.536Z,85.11
2024-01-04T07:20:10.537Z,84.64
2024-01-04T07:21:07.483Z,84.15
2024-01-04T07:22:04.405Z,84.23
2024-01-04T07:23:01.162Z,86.26
2024-01-04T07:23:57.858Z,86.10
2024-01-04T07:24:54.785Z,85.15
2024-01-04T07:25:52.510Z,85.53
2024-01-04T07:26:49.327Z,84.85
2024-01-04T07:27:49.306Z,83.30
2024-01-04T07:28:47.328Z,82.83
2024-01-04T07:29:44.639Z,84.79
2024-01-04T07:30:41.441Z,83.85
2024-01-04T07:31:38.135Z,84.09
2024-01-04T07:32:35.087Z,83.27
2024-01-04T07:33:32.104Z,82.43
2024-01-04T07:34:28.838Z,83.33
2024-01-04T07:35:25.615Z,82.61
2024-01-04T07:36:22.284Z,82.66
2024-01-04T07:37:19.037Z,81.38
2024-01-04T07:38:15.640Z,82.88
2024-01-04T07:39:12.859Z,83.64
2024-01-04T07:40:10.201Z,82.44
2024-01-04T07:41:06.888Z,82.04
2024-01-04T07:42:03.659Z,82.99
2024-01-04T07:43:00.821Z,81.96
2024-01-04T07:43:58.877Z,81.53
2024-01-04T07:45:02.423Z,82.03
2024-01-04T07:46:03.505Z,81.63
2024-01-04T07:47:00.284Z,81.77
2024-01-04T07:47:57.070Z,80.80
2024-01-04T07:48:55.103Z,81.74
2024-01-04T07:49:53.278Z,81.16
2024-01-04T07:50:50.024Z,81.94
2024-01-04T07:51:46.772Z,81.83
2024-01-04T07:52:43.485Z,82.78
2024-01-04T07:53:41.440Z,82.69
2024-01-04T07:54:45.908Z,83.60
2024-01-04T07:55:47.582Z,83.91
2024-01-04T07:56:44.373Z,83.98
2024-01-04T07:57:41.052Z,84.44
2024-01-04T07:58:37.663Z,83.95
2024-01-04T07:59:34.274Z,83.32
2024-01-04T08:00:30.983Z,82.75
2024-01-04T08:01:27.646Z,83.24
2024-01-04T08:02:26.738Z,80.94
2024-01-04T08:03:23.542Z,81.17
2024-01-04T08:04:20.240Z,81.78
2024-01-04T08:05:16.938Z,82.16
2024-01-04T08:06:13.663Z,81.80
2024-01-04T08:07:10.475Z,81.60
2024-01-04T08:08:07.488Z,81.51
2024-01-04T08:09:04.693Z,81.24
2024-01-04T08:10:01.332Z,81.38
2024-01-04T08:10:58.028Z,81.52
2024-01-04T08:11:54.756Z,81.29
2024-01-04T08:12:51.367Z,81.35
2024-01-04T08:13:48.283Z,80.86
2024-01-04T08:14:44.931Z,81.70
2024-01-04T08:15:41.745Z,80.73
2024-01-04T08:16:38.687Z,80.98
2024-01-04T08:17:36.647Z,81.20
2024-01-04T08:18:35.080Z,81.45
2024-01-04T08:19:32.100Z,81.97
2024-01-04T08:20:29.056Z,81.71
2024-01-04T08:21:25.844Z,82.01
2024-01-04T08:22:22.458Z,81.26
2024-01-04T08:23:19.109Z,80.54
2024-01-04T08:24:18.192Z,80.98
2024-01-04T08:25:15.233Z,80.89
2024-01-04T08:26:12.279Z,82.18
2024-01-04T08:27:09.107Z,85.17
2024-01-04T08:28:06.853Z,85.73
2024-01-04T08:29:03.828Z,84.53
2024-01-04T08:30:00.608Z,85.31
2024-01-04T08:30:58.250Z,84.21
2024-01-04T08:31:55.729Z,83.32
2024-01-04T08:32:52.470Z,81.19
2024-01-04T08:33:49.198Z,81.75
2024-01-04T08:34:45.920Z,80.90
2024-01-04T08:35:42.799Z,81.51
2024-01-04T08:36:39.989Z,81.44
2024-01-04T08:37:36.591Z,80.96
2024-01-04T08:38:33.346Z,80.69
2024-01-04T08:39:29.957Z,80.00
2024-01-04T08:40:28.281Z,79.49
2024-01-04T08:41:24.995Z,79.64
2024-01-04T08:42:21.734Z,80.16
2024-01-04T08:43:18.954Z,80.63
2024-01-04T08:44:15.598Z,80.35
2024-01-04T08:45:12.547Z,80.34
2024-01-04T08:46:09.387Z,79.68
2024-01-04T08:47:06.092Z,79.57
2024-01-04T08:48:02.880Z,80.05
2024-01-04T08:49:00.004Z,79.67
2024-01-04T08:50:01.620Z,79.90
2024-01-04T08:50:58.678Z,79.84
2024-01-04T08:51:56.678Z,79.80
2024-01-04T08:52:53.411Z,79.83
2024-01-04T08:53:50.616Z,79.49
2024-01-04T08:54:47.349Z,79.70
2024-01-04T08:55:43.975Z,78.95
2024-01-04T08:56:40.649Z,78.94
2024-01-04T08:57:37.417Z,79.75
2024-01-04T08:58:34.054Z,78.80
2024-01-04T08:59:30.641Z,78.15
2024-01-04T09:00:27.314Z,77.59
2024-01-04T09:01:24.024Z,77.48
2024-01-04T09:02:22.029Z,77.55
2024-01-04T09:03:19.439Z,77.47
2024-01-04T09:04:16.354Z,77.47
2024-01-04T09:05:13.454Z,76.42
2024-01-04T09:06:13.112Z,76.39
2024-01-04T09:07:09.965Z,77.25
2024-01-04T09:08:07.121Z,76.39
2024-01-04T09:09:06.959Z,76.11
2024-01-04T09:10:03.864Z,75.47
2024-01-04T09:11:00.715Z,76.31
2024-01-04T09:11:57.617Z,76.43
2024-01-04T09:12:54.317Z,76.28
2024-01-04T09:13:50.943Z,77.39
2024-01-04T09:14:47.629Z,76.07
2024-01-04T09:15:44.306Z,77.03
2024-01-04T09:16:42.038Z,75.76
2024-01-04T09:17:38.760Z,74.70
2024-01-04T09:18:37.012Z,74.84
2024-01-04T09:19:33.991Z,73.30
2024-01-04T09:20:30.731Z,73.67
2024-01-04T09:21:27.505Z,73.01
2024-01-04T09:22:24.200Z,73.36
2024-01-04T09:23:21.009Z,72.91
2024-01-04T09:24:19.594Z,73.87
2024-01-04T09:25:16.717Z,74.78
2024-01-04T09:26:13.357Z,74.89
2024-01-04T09:27:10.052Z,73.85
2024-01-04T09:28:06.936Z,73.04
2024-01-04T09:29:04.136Z,73.47
2024-01-04T09:30:00.813Z,73.41
2024-01-04T09:30:57.475Z,74.32
2024-01-04T09:31:54.150Z,73.82
2024-01-04T09:32:50.841Z,74.12
2024-01-04T09:33:47.588Z,74.15
2024-01-04T09:34:44.267Z,74.12
2024-01-04T09:35:42.413Z,74.77
2024-01-04T09:36:39.127Z,74.27
2024-01-04T09:37:35.811Z,73.68
2024-01-04T09:38:35.670Z,72.77
2024-01-04T09:39:32.435Z,71.75
2024-01-04T09:40:29.598Z,73.58
2024-01-04T09:41:34.495Z,73.21
2024-01-04T09:42:32.490Z,73.06
2024-01-04T09:43:31.954Z,71.83
2024-01-04T09:44:33.671Z,71.34
2024-01-04T09:45:31.117Z,71.49
2024-01-04T09:46:36.061Z,71.53
2024-01-04T09:47:34.674Z,70.92
2024-01-04T09:48:37.266Z,70.69
2024-01-04T09:49:34.835Z,68.58
2024-01-04T09:50:31.756Z,68.23
2024-01-04T09:51:30.098Z,68.33
2024-01-04T09:52:27.151Z,69.46
2024-01-04T09:53:23.747Z,69.83
2024-01-04T09:54:21.206Z,66.85
2024-01-04T09:55:19.858Z,65.36
2024-01-04T09:56:16.781Z,66.63
2024-01-04T09:57:14.100Z,67.92
2024-01-04T09:58:12.110Z,68.32
2024-01-04T09:59:09.454Z,68.05
2024-01-04T10:00:09.969Z,66.69
2024-01-04T10:01:11.066Z,67.75
2024-01-04T10:02:12.641Z,68.49
2024-01-04T10:03:13.523Z,66.36
2024-01-04T10:04:13.467Z,67.06
2024-01-04T10:05:16.894Z,65.92
2024-01-04T10:06:17.589Z,66.68
2024-01-04T10:07:22.801Z,66.51
2024-01-04T10:08:33.486Z,66.41
2024-01-04T10:09:39.879Z,64.27
2024-01-04T10:10:41.614Z,66.17
2024-01-04T10:11:44.711Z,65.07
2024-01-04T10:12:44.034Z,66.39
2024-01-04T10:13:40.939Z,65.03
2024-01-04T10:14:38.213Z,64.83
2024-01-04T10:15:37.885Z,65.30
2024-01-04T10:16:34.976Z,64.80
2024-01-04T10:17:33.529Z,62.34
2024-01-04T10:18:31.320Z,65.18
2024-01-04T10:19:29.261Z,65.75
2024-01-04T10:20:25.985Z,66.00
2024-01-04T10:21:22.644Z,65.53
2024-01-04T10:22:23.322Z,64.01
2024-01-04T10:23:19.967Z,65.61
2024-01-04T10:24:26.834Z,64.91
2024-01-04T10:25:23.817Z,63.66
2024-01-04T10:26:23.949Z,64.41
2024-01-04T10:27:20.772Z,64.51
2024-01-04T10:28:20.588Z,64.55
2024-01-04T10:29:21.166Z,64.12
2024-01-04T10:30:18.412Z,64.20
2024-01-04T10:31:15.132Z,63.74
2024-01-04T10:32:13.860Z,64.48
2024-01-04T10:33:10.696Z,64.41
2024-01-04T10:34:07.546Z,62.83
2024-01-04T10:35:08.113Z,63.30
2024-01-04T10:36:09.527Z,64.46
2024-01-04T10:37:12.640Z,63.16
2024-01-04T10:38:10.092Z,63.93
2024-01-04T10:39:09.837Z,62.82
2024-01-04T10:40:09.081Z,63.04
2024-01-04T10:41:06.040Z,62.96
2024-01-04T10:42:03.289Z,61.47
2024-01-04T10:43:00.369Z,63.10
2024-01-04T10:44:07.813Z,64.00
2024-01-04T10:45:04.756Z,63.48
2024-01-04T10:46:10.326Z,62.94
2024-01-04T10:47:10.402Z,63.42
2024-01-04T10:48:13.268Z,62.35
2024-01-04T10:49:18.380Z,61.65
2024-01-04T10:50:15.589Z,60.30
2024-01-04T10:51:12.654Z,60.31
2024-01-04T10:52:14.919Z,59.86
2024-01-04T10:53:14.792Z,60.95
2024-01-04T10:54:12.432Z,62.41
2024-01-04T10:55:09.139Z,60.33
2024-01-04T10:56:06.848Z,59.39
2024-01-04T10:57:04.133Z,59.07
2024-01-04T10:58:04.089Z,59.98
2024-01-04T10:59:02.317Z,60.22
2024-01-04T10:59:59.797Z,60.44
2024-01-04T11:00:56.960Z,60.60
2024-01-04T11:01:54.516Z,59.82
2024-01-04T11:02:52.940Z,59.79
2024-01-04T11:03:50.451Z,59.70
2024-01-04T11:04:48.642Z,58.64
2024-01-04T11:05:47.893Z,58.26
2024-01-04T11:06:45.133Z,58.70
2024-01-04T11:07:41.800Z,59.59
2024-01-04T11:08:43.342Z,59.12
2024-01-04T11:09:41.224Z,59.59
2024-01-04T11:10:40.217Z,60.89
2024-01-04T11:11:37.240Z,60.36
2024-01-04T11:12:42.211Z,61.54
2024-01-04T11:13:39.027Z,60.79
2024-01-04T11:14:35.619Z,61.50
2024-01-04T11:15:32.722Z,62.23
2024-01-04T11:16:35.149Z,61.15
2024-01-04T11:17:55.718Z,61.74
2024-01-04T11:19:10.919Z,64.00
2024-01-04T11:20:22.181Z,62.58
2024-01-04T11:21:38.038Z,63.59
2024-01-04T11:23:04.602Z,64.01
2024-01-04T11:24:07.564Z,63.63
2024-01-04T11:25:16.525Z,63.39
2024-01-04T11:26:31.258Z,62.14
2024-01-04T11:27:30.719Z,61.43
2024-01-04T11:28:37.331Z,61.34
2024-01-04T11:29:38.746Z,61.18
2024-01-04T11:30:35.804Z,62.55
2024-01-04T11:31:32.588Z,63.04
2024-01-04T11:32:35.106Z,62.60
2024-01-04T11:33:34.960Z,62.03
2024-01-04T11:34:31.911Z,61.51
2024-01-04T11:35:34.474Z,62.60
2024-01-04T11:36:31.057Z,63.33
2024-01-04T11:37:27.860Z,63.52
2024-01-04T11:38:37.748Z,63.65
2024-01-04T11:39:35.069Z,64.58
2024-01-04T11:40:31.734Z,65.49
2024-01-04T11:41:36.210Z,65.46
2024-01-04T11:42:33.919Z,65.62
2024-01-04T11:43:38.317Z,65.13
2024-01-04T11:44:38.136Z,65.50
2024-01-04T11:45:34.934Z,64.99
2024-01-04T11:46:33.971Z,66.15
2024-01-04T11:47:55.608Z,66.07
2024-01-04T11:49:06.520Z,68.00
2024-01-04T11:50:12.216Z,67.61
2024-01-04T11:51:10.532Z,68.94
2024-01-04T11:52:09.414Z,68.43
2024-01-04T11:53:11.334Z,68.27
2024-01-04T11:54:11.407Z,66.99
2024-01-04T11:55:08.884Z,69.31
2024-01-04T11:56:06.751Z,68.21
2024-01-04T11:57:18.022Z,66.11
2024-01-04T11:58:25.549Z,67.18
2024-01-04T11:59:31.509Z,67.87
2024-01-04T12:00:33.488Z,68.66
2024-01-04T12:01:32.417Z,69.35
2024-01-04T12:02:31.743Z,68.07
2024-01-04T12:03:30.214Z,69.05
2024-01-04T12:04:26.910Z,68.94
2024-01-04T12:05:24.252Z,67.00
2024-01-04T12:06:24.628Z,67.65
2024-01-04T12:07:21.398Z,68.62
2024-01-04T12:08:33.510Z,67.38
2024-01-04T12:09:30.289Z,68.48
2024-01-04T12:10:26.899Z,67.24
2024-01-04T12:11:23.835Z,67.13
2024-01-04T12:12:20.766Z,68.00
2024-01-04T12:13:17.412Z,67.37
2024-01-04T12:14:14.026Z,66.63
2024-01-04T12:15:10.742Z,67.71
2024-01-04T12:16:07.934Z,67.97
2024-01-04T12:17:05.533Z,67.05
2024-01-04T12:18:02.398Z,66.68
2024-01-04T12:18:59.749Z,66.59
2024-01-04T12:19:56.708Z,66.30
2024-01-04T12:20:56.037Z,67.05
2024-01-04T12:21:57.727Z,66.53
2024-01-04T12:22:54.345Z,66.99
2024-01-04T12:23:52.940Z,67.66